createdAt,value
2019-03-25T00:01:55.088Z,8.83
2019-03-25T00:04:23.534Z,8.78
2019-03-25T00:06:52.115Z,8.68
2019-03-25T00:09:20.479Z,8.71
2019-03-25T00:11:48.889Z,8.69
2019-03-25T00:14:17.573Z,8.51
2019-03-25T00:16:46.096Z,8.36
2019-03-25T00:19:16.217Z,8.22
2019-03-25T00:21:44.845Z,8.08
2019-03-25T00:24:13.255Z,8.08
2019-03-25T00:26:41.774Z,7.98
2019-03-25T00:29:10.433Z,7.80
2019-03-25T00:31:38.818Z,7.68
2019-03-25T00:34:07.351Z,7.55
2019-03-25T00:36:35.823Z,7.47
2019-03-25T00:39:06.187Z,7.39
2019-03-25T00:41:34.939Z,7.35
2019-03-25T00:44:03.994Z,7.17
2019-03-25T00:46:33.021Z,7.02
2019-03-25T00:49:01.488Z,6.83
2019-03-25T00:51:30.379Z,6.73
2019-03-25T00:53:58.714Z,6.63
2019-03-25T00:56:27.347Z,6.60
2019-03-25T00:58:55.869Z,6.52
2019-03-25T01:01:24.352Z,6.45
2019-03-25T01:03:53.430Z,6.38
2019-03-25T01:06:21.974Z,6.30
2019-03-25T01:08:50.403Z,6.21
2019-03-25T01:11:19.084Z,6.09
2019-03-25T01:13:47.768Z,6.02
2019-03-25T01:16:16.338Z,5.98
2019-03-25T01:18:45.083Z,5.83
2019-03-25T01:21:13.473Z,5.74
2019-03-25T01:23:41.890Z,5.57
2019-03-25T01:26:10.353Z,5.49
2019-03-25T01:28:38.756Z,5.46
2019-03-25T01:31:07.248Z,5.35
2019-03-25T01:33:35.823Z,5.30
2019-03-25T01:36:04.278Z,5.17
2019-03-25T01:38:32.695Z,5.08
2019-03-25T01:41:01.154Z,5.03
2019-03-25T01:43:29.542Z,4.93
2019-03-25T01:45:57.946Z,4.91
2019-03-25T01:48:26.438Z,4.86
2019-03-25T01:50:54.824Z,4.78
2019-03-25T01:53:23.254Z,4.68
2019-03-25T01:55:51.644Z,4.61
2019-03-25T01:58:20.067Z,4.54
2019-03-25T02:00:48.541Z,4.49
2019-03-25T02:03:16.989Z,4.48
2019-03-25T02:05:45.390Z,4.43
2019-03-25T02:08:13.782Z,4.36
2019-03-25T02:10:42.381Z,4.29
2019-03-25T02:13:10.799Z,4.27
2019-03-25T02:15:39.231Z,4.25
2019-03-25T02:18:07.685Z,4.23
2019-03-25T02:20:36.095Z,4.10
2019-03-25T02:23:06.029Z,4.05
2019-03-25T02:25:34.485Z,4.08
2019-03-25T02:28:02.963Z,4.00
2019-03-25T02:30:31.362Z,3.96
2019-03-25T02:32:59.770Z,3.91
2019-03-25T02:35:28.176Z,3.84
2019-03-25T02:37:56.581Z,3.80
2019-03-25T02:40:24.983Z,3.79
2019-03-25T02:42:53.392Z,3.74
2019-03-25T02:45:21.822Z,3.70
2019-03-25T02:47:50.216Z,3.64
2019-03-25T02:50:18.646Z,3.61
2019-03-25T02:52:47.151Z,3.59
2019-03-25T02:55:15.663Z,3.60
2019-03-25T02:57:44.059Z,3.62
2019-03-25T03:00:13.164Z,3.55
2019-03-25T03:02:41.602Z,3.50
2019-03-25T03:05:10.065Z,3.44
2019-03-25T03:07:38.575Z,3.42
2019-03-25T03:10:08.361Z,3.41
2019-03-25T03:12:36.841Z,3.37
2019-03-25T03:15:06.872Z,3.39
2019-03-25T03:17:35.271Z,3.36
2019-03-25T03:20:05.212Z,3.27
2019-03-25T03:22:33.650Z,3.18
2019-03-25T03:25:02.056Z,3.15
2019-03-25T03:27:30.501Z,3.07
2019-03-25T03:29:58.870Z,2.98
2019-03-25T03:32:27.306Z,3.04
2019-03-25T03:34:55.689Z,2.96
2019-03-25T03:37:24.103Z,2.84
2019-03-25T03:39:52.517Z,2.82
2019-03-25T03:42:21.240Z,2.78
2019-03-25T03:44:49.616Z,2.60
2019-03-25T03:47:18.068Z,2.68
2019-03-25T03:49:46.559Z,2.58
2019-03-25T03:52:15.427Z,2.42
2019-03-25T03:54:44.800Z,2.41
2019-03-25T03:57:14.474Z,2.45
2019-03-25T03:59:43.732Z,2.36
2019-03-25T04:02:12.321Z,2.37
2019-03-25T04:04:40.743Z,2.34
2019-03-25T04:07:09.273Z,2.29
2019-03-25T04:09:37.793Z,2.29
2019-03-25T04:12:06.273Z,2.25
2019-03-25T04:14:34.667Z,2.14
2019-03-25T04:17:03.093Z,2.19
2019-03-25T04:19:31.572Z,2.08
2019-03-25T04:21:59.991Z,2.05
2019-03-25T04:24:28.413Z,1.97
2019-03-25T04:28:35.174Z,2.03
2019-03-25T04:31:03.568Z,1.95
2019-03-25T04:33:31.963Z,1.93
2019-03-25T04:36:00.363Z,1.80
2019-03-25T04:38:28.763Z,1.87
2019-03-25T04:40:57.299Z,1.75
2019-03-25T04:43:26.015Z,1.92
2019-03-25T04:45:54.415Z,2.09
2019-03-25T04:48:22.918Z,1.96
2019-03-25T04:50:51.318Z,1.86
2019-03-25T04:53:19.721Z,1.95
2019-03-25T04:55:48.168Z,1.86
2019-03-25T04:58:16.565Z,1.94
2019-03-25T05:00:45.051Z,1.97
2019-03-25T05:03:13.466Z,1.87
2019-03-25T05:05:41.880Z,1.97
2019-03-25T05:08:10.291Z,1.93
2019-03-25T05:10:39.113Z,1.90
2019-03-25T05:13:07.513Z,1.89
2019-03-25T05:15:35.941Z,1.93
2019-03-25T05:18:04.415Z,1.89
2019-03-25T05:20:32.908Z,1.85
2019-03-25T05:23:01.301Z,1.84
2019-03-25T05:25:29.691Z,1.88
2019-03-25T05:27:58.101Z,1.78
2019-03-25T05:30:26.568Z,1.73
2019-03-25T05:32:54.970Z,1.83
2019-03-25T05:35:23.380Z,1.74
2019-03-25T05:37:51.815Z,1.75
2019-03-25T05:40:20.222Z,1.88
2019-03-25T05:42:48.805Z,1.87
2019-03-25T05:45:17.215Z,1.97
2019-03-25T05:47:45.627Z,2.11
2019-03-25T05:50:14.202Z,2.12
2019-03-25T05:52:42.688Z,2.23
2019-03-25T05:55:11.091Z,2.42
2019-03-25T05:57:39.518Z,2.52
2019-03-25T06:00:08.947Z,2.65
2019-03-25T06:02:37.377Z,2.70
2019-03-25T06:05:06.821Z,2.61
2019-03-25T06:07:35.409Z,2.73
2019-03-25T06:10:04.762Z,2.81
2019-03-25T06:12:34.427Z,2.91
2019-03-25T06:15:03.682Z,2.94
2019-03-25T06:17:32.180Z,3.02
2019-03-25T06:20:00.650Z,3.24
2019-03-25T06:22:29.128Z,3.41
2019-03-25T06:24:57.531Z,3.58
2019-03-25T06:27:25.920Z,3.79
2019-03-25T06:29:54.341Z,3.93
2019-03-25T06:32:22.739Z,4.11
2019-03-25T06:34:51.163Z,4.28
2019-03-25T06:37:19.574Z,4.45
2019-03-25T06:39:48.014Z,4.61
2019-03-25T06:42:16.410Z,4.79
2019-03-25T06:44:44.830Z,4.96
2019-03-25T06:47:13.243Z,5.24
2019-03-25T06:49:41.675Z,5.56
2019-03-25T06:52:10.094Z,5.89
2019-03-25T06:54:38.527Z,6.13
2019-03-25T06:57:07.894Z,6.39
2019-03-25T06:59:36.320Z,6.67
2019-03-25T07:02:04.857Z,7.03
2019-03-25T07:04:33.593Z,7.20
2019-03-25T07:07:02.067Z,7.18
2019-03-25T07:09:30.567Z,7.21
2019-03-25T07:11:59.322Z,7.17
2019-03-25T07:14:29.502Z,7.00
2019-03-25T07:16:57.888Z,6.89
2019-03-25T07:19:26.315Z,6.80
2019-03-25T07:21:54.798Z,6.77
2019-03-25T07:24:23.234Z,6.72
2019-03-25T07:26:51.734Z,6.61
2019-03-25T07:29:20.228Z,6.66
2019-03-25T07:31:48.646Z,6.70
2019-03-25T07:34:17.060Z,6.84
2019-03-25T07:36:45.561Z,6.83
2019-03-25T07:39:13.959Z,6.93
2019-03-25T07:41:42.429Z,7.11
2019-03-25T07:44:10.839Z,7.25
2019-03-25T07:46:39.254Z,7.27
2019-03-25T07:49:07.658Z,7.31
2019-03-25T07:51:36.172Z,7.29
2019-03-25T07:54:04.667Z,7.39
2019-03-25T07:56:33.090Z,7.56
2019-03-25T07:59:01.507Z,7.78
2019-03-25T08:01:29.927Z,7.98
2019-03-25T08:03:58.485Z,7.95
2019-03-25T08:06:26.943Z,7.94
2019-03-25T08:09:03.622Z,8.81
2019-03-25T08:11:25.751Z,9.12
2019-03-25T08:13:54.207Z,9.21
2019-03-25T08:16:22.577Z,9.24
2019-03-25T08:18:50.975Z,9.06
2019-03-25T08:21:19.456Z,8.80
2019-03-25T08:23:47.904Z,8.76
2019-03-25T08:26:16.374Z,9.33
2019-03-25T08:28:44.820Z,10.61
2019-03-25T08:31:13.225Z,12.46
2019-03-25T08:33:41.670Z,13.80
2019-03-25T08:36:10.087Z,15.36
2019-03-25T08:38:38.532Z,15.86
2019-03-25T08:41:07.110Z,14.63
2019-03-25T08:43:35.538Z,12.92
2019-03-25T08:46:04.127Z,12.24
2019-03-25T08:48:32.627Z,10.52
2019-03-25T08:51:01.102Z,10.52
2019-03-25T08:53:29.527Z,10.03
2019-03-25T08:55:57.933Z,9.82
2019-03-25T08:58:26.412Z,9.82
2019-03-25T09:00:54.968Z,9.76
2019-03-25T09:03:23.357Z,9.74
2019-03-25T09:05:51.765Z,9.55
2019-03-25T09:08:20.199Z,9.66
2019-03-25T09:10:48.715Z,9.56
2019-03-25T09:13:17.135Z,9.82
2019-03-25T09:15:45.529Z,11.04
2019-03-25T09:18:14.195Z,11.56
2019-03-25T09:20:42.754Z,11.68
2019-03-25T09:23:11.376Z,11.15
2019-03-25T09:25:39.797Z,10.87
2019-03-25T09:28:08.435Z,10.87
2019-03-25T09:30:55.200Z,10.74
2019-03-25T09:33:23.780Z,10.74
2019-03-25T09:35:52.326Z,10.25
2019-03-25T09:38:20.833Z,10.32
2019-03-25T09:40:49.344Z,10.40
2019-03-25T09:43:17.800Z,10.40
2019-03-25T09:45:46.299Z,10.33
2019-03-25T09:48:14.906Z,11.11
2019-03-25T09:50:43.407Z,11.44
2019-03-25T09:53:11.810Z,11.73
2019-03-25T09:55:40.242Z,12.14
2019-03-25T09:58:08.649Z,11.83
2019-03-25T10:00:37.194Z,12.67
2019-03-25T10:03:05.612Z,13.58
2019-03-25T10:05:34.215Z,13.68
2019-03-25T10:08:02.631Z,13.22
2019-03-25T10:10:31.137Z,13.65
2019-03-25T10:12:59.792Z,13.78
2019-03-25T10:15:28.199Z,13.22
2019-03-25T10:17:56.669Z,13.92
2019-03-25T10:20:25.076Z,13.59
2019-03-25T10:22:53.512Z,12.95
2019-03-25T10:25:21.977Z,14.32
2019-03-25T10:27:50.415Z,14.62
2019-03-25T10:30:19.072Z,12.79
2019-03-25T10:32:47.565Z,12.03
2019-03-25T10:35:16.212Z,11.67
2019-03-25T10:37:44.742Z,11.30
2019-03-25T10:40:13.851Z,12.76
2019-03-25T10:42:42.331Z,14.61
2019-03-25T10:45:12.396Z,13.89
2019-03-25T10:47:40.824Z,13.33
2019-03-25T10:50:09.670Z,13.11
2019-03-25T10:52:38.141Z,12.57
2019-03-25T10:55:07.934Z,12.90
2019-03-25T10:57:36.497Z,14.05
2019-03-25T11:00:10.648Z,15.10
2019-03-25T11:02:39.165Z,14.99
2019-03-25T11:05:08.247Z,16.46
2019-03-25T11:07:36.811Z,16.18
2019-03-25T11:10:08.772Z,17.05
2019-03-25T11:12:37.243Z,16.77
2019-03-25T11:15:07.968Z,17.91
2019-03-25T11:17:36.383Z,17.19
2019-03-25T11:20:10.066Z,14.94
2019-03-25T11:22:38.819Z,13.71
2019-03-25T11:25:07.995Z,12.84
2019-03-25T11:27:36.410Z,12.32
2019-03-25T11:30:09.784Z,12.08
2019-03-25T11:32:38.257Z,11.82
2019-03-25T11:35:09.408Z,14.83
2019-03-25T11:37:38.067Z,17.73
2019-03-25T11:40:08.446Z,20.03
2019-03-25T11:42:37.003Z,19.64
2019-03-25T11:45:08.450Z,18.47
2019-03-25T11:47:36.920Z,20.57
2019-03-25T11:50:09.087Z,22.25
2019-03-25T11:52:37.569Z,19.48
2019-03-25T11:55:07.035Z,20.20
2019-03-25T11:57:35.491Z,21.08
2019-03-25T12:00:06.938Z,22.14
2019-03-25T12:02:35.444Z,21.27
2019-03-25T12:05:06.217Z,18.43
2019-03-25T12:07:34.732Z,15.03
2019-03-25T12:10:03.645Z,13.95
2019-03-25T12:12:32.113Z,12.99
2019-03-25T12:15:01.678Z,12.67
2019-03-25T12:17:30.283Z,13.74
2019-03-25T12:19:58.700Z,14.16
2019-03-25T12:22:27.207Z,14.94
2019-03-25T12:24:55.589Z,14.52
2019-03-25T12:27:24.025Z,14.64
2019-03-25T12:29:52.502Z,15.72
2019-03-25T12:32:21.042Z,16.50
2019-03-25T12:34:49.505Z,17.62
2019-03-25T12:37:17.927Z,18.16
2019-03-25T12:39:46.389Z,19.94
2019-03-25T12:42:14.885Z,20.30
2019-03-25T12:44:43.424Z,19.63
2019-03-25T12:47:12.103Z,18.68
2019-03-25T12:49:40.511Z,18.06
2019-03-25T12:52:08.928Z,18.28
2019-03-25T12:54:37.326Z,17.68
2019-03-25T12:57:05.826Z,16.95
2019-03-25T12:59:41.257Z,16.72
2019-03-25T13:02:04.471Z,16.20
2019-03-25T13:04:32.889Z,15.32
2019-03-25T13:07:01.480Z,15.12
2019-03-25T13:09:29.925Z,15.21
2019-03-25T13:11:58.321Z,14.76
2019-03-25T13:14:26.735Z,14.81
2019-03-25T13:16:55.141Z,14.65
2019-03-25T13:19:23.769Z,14.33
2019-03-25T13:21:52.244Z,13.67
2019-03-25T13:24:20.857Z,12.83
2019-03-25T13:26:49.377Z,11.43
2019-03-25T13:29:17.856Z,10.59
2019-03-25T13:31:46.340Z,9.42
2019-03-25T13:34:14.747Z,9.42
2019-03-25T13:36:43.229Z,9.37
2019-03-25T13:39:11.642Z,9.25
2019-03-25T13:41:40.086Z,9.27
2019-03-25T13:44:08.518Z,9.27
2019-03-25T13:46:36.994Z,9.40
2019-03-25T13:49:05.507Z,9.66
2019-03-25T13:51:33.995Z,11.04
2019-03-25T13:54:02.494Z,12.52
2019-03-25T13:56:30.926Z,13.09
2019-03-25T13:58:59.388Z,13.09
2019-03-25T14:01:27.804Z,12.83
2019-03-25T14:03:56.241Z,12.46
2019-03-25T14:06:27.065Z,11.68
2019-03-25T14:08:55.874Z,11.12
2019-03-25T14:11:24.319Z,11.51
2019-03-25T14:13:52.735Z,11.20
2019-03-25T14:16:21.150Z,10.61
2019-03-25T14:18:49.536Z,10.43
2019-03-25T14:21:17.949Z,10.34
2019-03-25T14:23:46.472Z,10.38
2019-03-25T14:26:14.902Z,10.37
2019-03-25T14:28:43.426Z,11.50
2019-03-25T14:31:11.879Z,12.81
2019-03-25T14:33:40.366Z,13.54
2019-03-25T14:36:08.838Z,13.92
2019-03-25T14:38:37.265Z,13.82
2019-03-25T14:41:05.765Z,14.05
2019-03-25T14:43:34.185Z,14.97
2019-03-25T14:46:02.600Z,14.82
2019-03-25T14:48:31.069Z,14.83
2019-03-25T14:50:59.541Z,14.27
2019-03-25T14:53:27.951Z,14.19
2019-03-25T14:55:56.370Z,14.18
2019-03-25T14:58:24.803Z,13.64
2019-03-25T15:00:53.423Z,14.03
2019-03-25T15:03:21.888Z,13.96
2019-03-25T15:05:50.460Z,14.24
2019-03-25T15:08:18.979Z,14.28
2019-03-25T15:10:53.474Z,14.55
2019-03-25T15:13:17.590Z,13.96
2019-03-25T15:15:46.042Z,13.79
2019-03-25T15:18:15.895Z,13.60
2019-03-25T15:20:44.443Z,13.37
2019-03-25T15:23:12.910Z,13.23
2019-03-25T15:25:41.312Z,12.85
2019-03-25T15:28:09.749Z,12.52
2019-03-25T15:30:38.169Z,11.92
2019-03-25T15:33:06.743Z,11.35
2019-03-25T15:35:35.234Z,10.83
2019-03-25T15:38:03.651Z,9.88
2019-03-25T15:40:32.273Z,8.93
2019-03-25T15:43:00.726Z,8.58
2019-03-25T15:45:29.127Z,8.66
2019-03-25T15:47:57.576Z,9.35
2019-03-25T15:50:26.176Z,9.99
2019-03-25T15:52:54.651Z,10.32
2019-03-25T15:55:23.233Z,10.64
2019-03-25T15:57:51.811Z,11.01
2019-03-25T16:00:21.608Z,11.01
2019-03-25T16:02:50.092Z,11.01
2019-03-25T16:05:18.683Z,11.07
2019-03-25T16:07:47.237Z,10.67
2019-03-25T16:10:17.134Z,10.67
2019-03-25T16:12:46.309Z,10.97
2019-03-25T16:15:16.499Z,10.88
2019-03-25T16:17:44.974Z,10.83
2019-03-25T16:20:14.042Z,10.83
2019-03-25T16:22:42.445Z,10.86
2019-03-25T16:25:13.920Z,10.92
2019-03-25T16:27:42.324Z,10.69
2019-03-25T16:30:11.036Z,10.40
2019-03-25T16:32:39.552Z,10.06
2019-03-25T16:35:08.128Z,9.98
2019-03-25T16:37:36.622Z,9.83
2019-03-25T16:40:07.250Z,9.77
2019-03-25T16:42:35.730Z,9.75
2019-03-25T16:45:04.842Z,9.93
2019-03-25T16:47:33.327Z,10.01
2019-03-25T16:50:01.892Z,10.17
2019-03-25T16:52:30.255Z,10.08
2019-03-25T16:55:03.827Z,10.14
2019-03-25T16:57:32.201Z,10.23
2019-03-25T17:00:00.613Z,10.14
2019-03-25T17:02:29.090Z,9.77
2019-03-25T17:04:57.495Z,9.94
2019-03-25T17:07:25.908Z,9.58
2019-03-25T17:09:54.309Z,9.44
2019-03-25T17:12:22.732Z,9.34
2019-03-25T17:14:51.120Z,9.34
2019-03-25T17:17:19.623Z,9.08
2019-03-25T17:19:48.072Z,9.08
2019-03-25T17:22:16.478Z,9.11
2019-03-25T17:24:44.877Z,9.07
2019-03-25T17:27:13.410Z,8.89
2019-03-25T17:29:41.903Z,8.88
2019-03-25T17:32:10.296Z,8.76
2019-03-25T17:34:38.685Z,8.61
2019-03-25T17:37:07.259Z,8.48
2019-03-25T17:39:35.659Z,8.36
2019-03-25T17:42:04.254Z,8.32
2019-03-25T17:44:32.646Z,8.43
2019-03-25T17:47:01.137Z,8.38
2019-03-25T17:49:29.629Z,8.20
2019-03-25T17:51:58.080Z,8.11
2019-03-25T17:54:26.468Z,8.08
2019-03-25T17:56:54.868Z,7.98
2019-03-25T17:59:23.273Z,7.96
2019-03-25T18:01:51.815Z,7.90
2019-03-25T18:04:20.207Z,7.93
2019-03-25T18:06:48.608Z,7.68
2019-03-25T18:09:17.179Z,7.58
2019-03-25T18:11:45.666Z,7.50
2019-03-25T18:14:14.196Z,7.46
2019-03-25T18:16:42.662Z,7.44
2019-03-25T18:19:11.055Z,7.43
2019-03-25T18:21:39.606Z,7.41
2019-03-25T18:24:08.090Z,7.39
2019-03-25T18:26:36.521Z,7.43
2019-03-25T18:29:05.097Z,7.39
2019-03-25T18:31:42.819Z,7.48
2019-03-25T18:34:03.774Z,7.68
2019-03-25T18:36:32.262Z,7.71
2019-03-25T18:39:00.597Z,7.81
2019-03-25T18:41:29.039Z,7.86
2019-03-25T18:43:57.592Z,7.78
2019-03-25T18:46:26.175Z,7.55
2019-03-25T18:48:54.738Z,7.32
2019-03-25T18:51:26.415Z,7.16
2019-03-25T18:53:54.889Z,7.07
2019-03-25T18:56:23.352Z,7.05
2019-03-25T18:58:51.828Z,7.06
2019-03-25T19:01:20.258Z,6.99
2019-03-25T19:03:48.691Z,6.82
2019-03-25T19:06:17.263Z,6.61
2019-03-25T19:08:45.735Z,6.55
2019-03-25T19:11:14.244Z,6.51
2019-03-25T19:13:42.708Z,6.52
2019-03-25T19:16:11.254Z,6.47
2019-03-25T19:18:39.758Z,6.50
2019-03-25T19:21:08.235Z,6.48
2019-03-25T19:23:36.757Z,6.46
2019-03-25T19:26:05.280Z,6.52
2019-03-25T19:28:33.764Z,6.48
2019-03-25T19:31:02.256Z,6.46
2019-03-25T19:33:30.649Z,6.48
2019-03-25T19:35:59.128Z,6.38
2019-03-25T19:38:27.550Z,6.38
2019-03-25T19:40:56.062Z,6.39
2019-03-25T19:43:24.455Z,6.26
2019-03-25T19:45:52.889Z,6.16
2019-03-25T19:48:21.339Z,6.12
2019-03-25T19:50:49.928Z,6.12
2019-03-25T19:53:19.584Z,6.08
2019-03-25T19:55:48.366Z,6.00
2019-03-25T19:58:17.066Z,5.96
2019-03-25T20:00:45.487Z,5.82
2019-03-25T20:03:13.969Z,5.73
2019-03-25T20:05:42.444Z,5.71
2019-03-25T20:08:10.923Z,5.56
2019-03-25T20:10:39.423Z,5.45
2019-03-25T20:13:08.105Z,5.37
2019-03-25T20:15:45.970Z,5.37
2019-03-25T20:18:06.934Z,5.37
2019-03-25T20:20:35.396Z,5.34
2019-03-25T20:23:03.992Z,5.34
2019-03-25T20:25:32.486Z,5.27
2019-03-25T20:28:01.131Z,5.28
2019-03-25T20:30:29.675Z,5.28
2019-03-25T20:32:58.265Z,5.22
2019-03-25T20:35:26.730Z,5.21
2019-03-25T20:37:55.260Z,5.17
2019-03-25T20:40:23.808Z,5.16
2019-03-25T20:42:52.411Z,5.05
2019-03-25T20:45:20.983Z,4.96
2019-03-25T20:47:49.492Z,4.95
2019-03-25T20:50:18.119Z,4.81
2019-03-25T20:52:46.583Z,4.63
2019-03-25T20:55:15.264Z,4.56
2019-03-25T20:57:43.685Z,4.47
2019-03-25T21:03:34.766Z,4.69
2019-03-25T21:06:03.289Z,4.65
2019-03-25T21:08:31.833Z,4.73
2019-03-25T21:11:00.237Z,4.70
2019-03-25T21:13:28.749Z,4.66
2019-03-25T21:15:57.161Z,4.64
2019-03-25T21:18:25.637Z,4.66
2019-03-25T21:20:54.233Z,4.62
2019-03-25T21:23:22.614Z,4.63
2019-03-25T21:25:51.309Z,4.63
2019-03-25T21:28:19.808Z,4.60
2019-03-25T21:30:48.643Z,4.58
2019-03-25T21:33:17.258Z,4.57
2019-03-25T21:35:45.810Z,4.56
2019-03-25T21:38:14.213Z,4.63
2019-03-25T21:40:42.691Z,4.64
2019-03-25T21:43:11.272Z,4.61
2019-03-25T21:45:39.787Z,4.58
2019-03-25T21:48:08.322Z,4.38
2019-03-25T21:50:36.794Z,4.24
2019-03-25T21:53:05.274Z,4.24
2019-03-25T21:55:33.730Z,4.15
2019-03-25T21:58:02.179Z,4.16
2019-03-25T22:00:30.683Z,4.06
2019-03-25T22:03:11.514Z,3.93
2019-03-25T22:05:29.195Z,3.81
2019-03-25T22:07:57.598Z,3.75
2019-03-25T22:10:26.026Z,3.70
2019-03-25T22:12:54.464Z,3.65
2019-03-25T22:15:23.180Z,3.60
2019-03-25T22:17:51.583Z,3.57
2019-03-25T22:20:21.397Z,3.52
2019-03-25T22:22:49.805Z,3.46
2019-03-25T22:25:18.304Z,3.40
2019-03-25T22:27:46.701Z,3.32
2019-03-25T22:30:15.417Z,3.27
2019-03-25T22:32:43.915Z,3.27
2019-03-25T22:35:12.649Z,3.23
2019-03-25T22:37:41.077Z,3.19
2019-03-25T22:40:10.019Z,3.15
2019-03-25T22:42:38.497Z,3.05
2019-03-25T22:45:07.337Z,3.00
2019-03-25T22:47:36.189Z,2.95
2019-03-25T22:50:07.454Z,2.88
2019-03-25T22:52:35.958Z,2.85
2019-03-25T22:55:06.492Z,2.86
2019-03-25T22:57:34.901Z,2.81
2019-03-25T23:00:03.466Z,2.79
2019-03-25T23:02:31.935Z,2.81
2019-03-25T23:05:00.421Z,2.79
2019-03-25T23:07:28.894Z,2.81
2019-03-25T23:09:57.386Z,2.76
2019-03-25T23:12:25.884Z,2.71
2019-03-25T23:14:54.292Z,2.66
2019-03-25T23:17:22.726Z,2.62
2019-03-25T23:19:51.196Z,2.68
2019-03-25T23:22:19.684Z,2.24
2019-03-25T23:24:48.113Z,2.59
2019-03-25T23:27:16.524Z,2.58
2019-03-25T23:29:44.921Z,2.52
2019-03-25T23:32:13.347Z,2.45
2019-03-25T23:34:41.835Z,2.41
2019-03-25T23:37:10.258Z,2.36
2019-03-25T23:39:38.677Z,2.33
2019-03-25T23:42:07.075Z,2.28
2019-03-25T23:44:35.477Z,2.30
2019-03-25T23:47:03.898Z,2.22
2019-03-25T23:49:32.288Z,2.10
2019-03-25T23:52:00.689Z,2.09
2019-03-25T23:54:29.177Z,2.01
2019-03-25T23:56:57.602Z,1.96
2019-03-25T23:59:26.060Z,1.91
